METAR Data
IDs: Format: Raw Decoded Include TAF

Data at: 1156 UTC 07 Jul 2020

KPYM 071152Z AUTO 18003KT 10SM SCT007 SCT080 BKN110 18/16 A3019 RMK AO2 SLP224 T01780161 10178 20156 51008
KPYM 071123Z AUTO 11004KT 7SM SCT005 BKN090 17/16 A3019 RMK AO2 T01720156
KPYM 071052Z AUTO 13003KT 10SM FEW065 BKN080 17/16 A3019 RMK AO2 SLP222 T01670156
KPYM 071025Z AUTO 09003KT 10SM FEW010 BKN065 OVC080 17/16 A3019 RMK AO2 T01670156
KPYM 070952Z AUTO 11004KT 10SM OVC010 17/16 A3019 RMK AO2 SLP222 T01670156
KPYM 070900Z AUTO 00000KT 10SM BKN005 OVC070 16/16 A3017 RMK AO2 T01610161
KPYM 070852Z AUTO 12003KT 10SM SCT005 BKN011 OVC070 16/16 A3017 RMK AO2 SLP215 T01610156 53003
KPYM 070843Z AUTO 13003KT 10SM FEW007 SCT011 OVC070 16/16 A3017 RMK AO2 T01610156
KPYM 070831Z AUTO 00000KT 10SM FEW007 BKN010 OVC065 17/16 A3017 RMK AO2 T01670161
KPYM 070752Z AUTO 00000KT 10SM OVC008 16/16 A3016 RMK AO2 CIG 007V011 SLP212 T01610156
KPYM 070732Z AUTO 00000KT 10SM BKN008 OVC075 16/15 A3015 RMK AO2 T01560150
KPYM 070652Z AUTO 00000KT 10SM FEW009 BKN070 BKN095 16/16 A3016 RMK AO2 SLP212 T01610156
KPYM 070552Z AUTO 00000KT 10SM BKN080 16/15 A3016 RMK AO2 SLP213 T01560150 10189 20156 50002
KPYM 070452Z AUTO 00000KT 10SM FEW090 16/15 A3016 RMK AO2 SLP214 T01560150 402170156
KPYM 070352Z AUTO 00000KT 10SM FEW085 16/16 A3016 RMK AO2 SLP214 T01610156
KPYM 070252Z AUTO 07003KT 10SM SCT009 SCT080 17/16 A3015 RMK AO2 SLP210 T01720161 50004
KPYM 070249Z AUTO 00000KT 10SM SCT009 SCT080 17/16 A3015 RMK AO2
KPYM 070236Z AUTO 00000KT 10SM BKN009 17/16 A3015 RMK AO2 T01720161
KPYM 070218Z AUTO 00000KT 10SM OVC010 17/16 A3015 RMK AO2 T01720161
KPYM 070152Z AUTO 20003KT 10SM OVC009 17/16 A3016 RMK AO2 SLP212 T01720161
KPYM 070133Z AUTO 10003KT 10SM BKN009 17/16 A3015 RMK AO2 T01720161
KPYM 070052Z AUTO 00000KT 10SM CLR 17/16 A3014 RMK AO2 SLP206 T01720161
KPYM 062352Z AUTO 06006KT 10SM CLR 19/17 A3011 RMK AO2 SLP197 T01890167 10217 20189 50002
KPYM 062252Z AUTO 04005KT 10SM CLR 21/17 A3012 RMK AO2 SLP199 T02060172
KPYM 062152Z AUTO 07006KT 10SM SCT013 21/17 A3013 RMK AO2 SLP201 T02060172
KPYM 062104Z AUTO 04009KT 10SM SCT013 21/17 A3011 RMK AO2 T02110167
KPYM 062052Z AUTO 07010KT 10SM BKN013 21/17 A3011 RMK AO2 SLP195 T02060167 51001
KPYM 061952Z AUTO 04009KT 10SM SCT013 22/17 A3011 RMK AO2 SLP195 T02170172
KPYM 061930Z AUTO 04009KT 10SM SCT014 22/17 A3011 RMK AO2 T02170172
KPYM 061852Z AUTO 07009KT 10SM OVC017 22/17 A3011 RMK AO2 SLP197 T02170172
KPYM 061752Z AUTO 03012KT 10SM SCT011 OVC019 21/17 A3010 RMK AO2 SLP194 T02110172 10217 20189 51003
KPYM 061740Z AUTO 02011KT 10SM BKN011 OVC017 21/17 A3011 RMK AO2 T02110172
KPYM 061652Z AUTO 02012KT 10SM OVC008 20/18 A3010 RMK AO2 CIG 006V011 SLP194 T02000178
KPYM 061648Z AUTO 03010KT 10SM OVC008 20/18 A3010 RMK AO2 CIG 006V011
KPYM 061552Z AUTO 04011KT 10SM OVC012 21/18 A3010 RMK AO2 SLP191 T02110178
KPYM 061537Z AUTO 02010KT 10SM OVC010 21/18 A3009 RMK AO2 CIG 009V013 T02110178
KPYM 061452Z AUTO 01008KT 10SM OVC007 21/18 A3008 RMK AO2 SLP185 T02060178 51018
KPYM 061352Z AUTO 35008KT 10SM OVC005 19/18 A3006 RMK AO2 SLP178 T01940178
KPYM 061343Z AUTO 01010KT 10SM OVC005 19/18 A3006 RMK AO2 T01940178
KPYM 061311Z AUTO 02009KT 10SM OVC004 19/18 A3005 RMK AO2 T01940183
KPYM 061252Z AUTO 03007KT 10SM OVC005 19/18 A3005 RMK AO2 CIG 003V008 SLP175 T01890183
KPYM 061219Z AUTO 04007KT 10SM OVC008 19/18 A3004 RMK AO2 CIG 006V011 T01940183
KPYM 061152Z AUTO 02007KT 10SM BKN011 20/18 A3002 RMK AO2 CIG 006V013 SLP167 70024 T02000183 10200 20178 51014
KPYM 061150Z AUTO 03007KT 10SM OVC011 20/18 A3002 RMK AO2 CIG 006V013
KPYM 061133Z AUTO 34006KT 10SM SCT004 OVC009 19/18 A3002 RMK AO2 CIG 007V011 T01940183
KPYM 061109Z AUTO 02006KT 10SM BKN004 OVC009 19/18 A3002 RMK AO2 CIG 004V007 T01890183
KPYM 061052Z AUTO 03006KT 10SM OVC006 19/19 A3001 RMK AO2 CIG 003V008 SLP161 T01890189
KPYM 061038Z AUTO 03005KT 6SM BR BKN004 OVC008 19/19 A3000 RMK AO2 T01890189
KPYM 061010Z AUTO 03006KT 2 1/2SM BR OVC003 19/19 A2999 RMK AO2 T01940189
KPYM 061002Z AUTO 03003KT 1 3/4SM BR OVC003 19/19 A2999 RMK AO2 T01940194
KPYM 060952Z AUTO 00000KT 1/2SM FG VV003 19/19 A2998 RMK AO2 SLP153 T01890189
KPYM 060852Z AUTO 03004KT 1/4SM FG VV002 19/19 A2997 RMK AO2 SLP147 T01890189 53002
KPYM 060800Z AUTO 00000KT 1/4SM FG VV002 19/19 A2995 RMK AO2 T01940189
KPYM 060752Z AUTO 00000KT 1/2SM FG VV002 19/19 A2995 RMK AO2 SLP141 T01940194
KPYM 060745Z AUTO 00000KT 1/2SM FG VV002 19/19 A2995 RMK AO2 T01940189
KPYM 060723Z AUTO 00000KT 1SM BR OVC002 18/18 A2995 RMK AO2 T01830183
KPYM 060715Z AUTO 00000KT 3/4SM BR OVC002 18/18 A2995 RMK AO2 T01830183
KPYM 060708Z AUTO 00000KT 1 3/4SM BR OVC001 18/18 A2995 RMK AO2 T01830178
KPYM 060703Z AUTO 00000KT 6SM BR BKN001 18/18 A2996 RMK AO2 T01830178
KPYM 060653Z AUTO 00000KT 3SM BR SCT001 18/18 A2995 RMK AO2 T01830178
KPYM 060649Z AUTO 00000KT 1 1/4SM BR BKN001 18/18 A2995 RMK AO2 SLP143 T01780178
KPYM 060648Z AUTO 00000KT 1 1/4SM BR BKN001 18/18 A2995 RMK AO2
KPYM 060641Z AUTO 00000KT 2 1/2SM BR FEW001 18/18 A2996 RMK AO2 T01780178
KPYM 060552Z AUTO 00000KT 10SM CLR 19/18 A2996 RMK AO2 LTG DSNT SE SLP145 60024 T01890183 10211 20189 58005
KPYM 060502Z AUTO 00000KT 10SM FEW042 SCT080 19/19 A2996 RMK AO2 LTG DSNT E AND SE T01940189
KPYM 060452Z AUTO 00000KT 10SM VCTS FEW042 SCT070 SCT090 19/19 A2997 RMK AO2 LTG DSNT E-SW RAB0356E27 TSE27 SLP148 P0024 T01940189 402720178
KPYM 060427Z AUTO 10003KT 10SM VCTS FEW010 SCT031 BKN065 20/18 A2998 RMK AO2 LTG DSNT ALQDS RAB0356E27 TSE27 P0024 T02000183
KPYM 060422Z AUTO 05003KT 9SM -TSRA SCT006 BKN029 OVC085 20/19 A2998 RMK AO2 LTG DSNT ALQDS RAB0356 P0024 T02000189
KPYM 060413Z AUTO 06005KT 3SM +TSRA BR SCT003 BKN013 OVC085 20/19 A2998 RMK AO2 LTG DSNT NE AND E AND W RAB0356 P0023 T02000189
KPYM 060407Z AUTO 01012G18KT 340V040 2SM +TSRA BR BKN002 BKN011 OVC029 20/19 A2998 RMK AO2 LTG DSNT NE RAB0356 P0018 T02000189
KPYM 060352Z AUTO 31012KT 3SM TS BR OVC002 21/20 A2999 RMK AO2 LTG DSNT W-NE TSB51 PRESRR SLP152 T02060200
KPYM 060350Z AUTO 30011G14KT 3SM VCTS BR OVC002 21/20 A2998 RMK AO2 LTG DSNT W-NE PRESRR
KPYM 060252Z AUTO 21006KT 2 1/2SM BR OVC003 21/20 A2995 RMK AO2 LTG DSNT N AND NW SLP141 T02060200 50003
KPYM 060152Z AUTO 21009KT 6SM BR OVC003 21/20 A2995 RMK AO2 SLP141 T02060200
KPYM 060106Z AUTO 19008KT 6SM BR OVC004 21/19 A2995 RMK AO2 T02060194
KPYM 060052Z AUTO 20006KT 10SM OVC005 21/19 A2994 RMK AO2 SLP139 T02060194